Time;durP1;ratioP1;P1;durP2;ratioP2;P2;SDS_P1;SDS_P2;PMS_P1;PMS_P2;Temp;Humidity;BMP_temperature;BMP_pressure;BME280_temperature;BME280_humidity;BME280_pressure;Samples;Min_cycle;Max_cycle;Signal;HPM_P1;HPM_P2
2022/08/21 00:02:00;;;;;;;11.52;2.97;;;;;;;19.95;50.12;101194.31;4975985;28;20387;-80
2022/08/21 00:04:25;;;;;;;5.90;3.05;;;;;;;19.82;50.36;101201.97;4975949;28;20130;-75
2022/08/21 00:06:52;;;;;;;10.27;3.30;;;;;;;19.80;50.29;101198.75;4976075;28;20030;-77
2022/08/21 00:09:19;;;;;;;7.88;3.00;;;;;;;19.77;50.36;101201.44;4975930;28;20029;-75
2022/08/21 00:11:44;;;;;;;8.68;2.70;;;;;;;19.70;50.24;101204.84;4974671;28;20100;-80
2022/08/21 00:14:14;;;;;;;10.07;3.30;;;;;;;19.62;50.37;101205.88;4975978;28;20429;-81
2022/08/21 00:16:40;;;;;;;7.25;2.58;;;;;;;19.73;49.96;101200.56;4973877;28;20478;-75
2022/08/21 00:19:06;;;;;;;6.88;2.58;;;;;;;19.59;50.20;101204.63;4975808;28;20031;-81
2022/08/21 00:21:34;;;;;;;9.95;3.65;;;;;;;19.51;50.24;101199.28;4982181;28;20148;-75
2022/08/21 00:24:00;;;;;;;6.53;2.25;;;;;;;19.48;50.23;101194.44;4985056;28;20054;-75
2022/08/21 00:26:26;;;;;;;13.57;3.50;;;;;;;19.43;50.16;101198.31;4983317;28;20050;-76
2022/08/21 00:28:52;;;;;;;9.55;2.60;;;;;;;19.37;50.11;101208.88;4984777;28;20014;-77
2022/08/21 00:31:18;;;;;;;12.43;2.78;;;;;;;19.34;50.25;101204.03;4983531;28;20050;-76
2022/08/21 00:33:44;;;;;;;9.65;3.20;;;;;;;19.26;50.17;101201.47;4981757;28;20493;-77
2022/08/21 00:36:10;;;;;;;8.70;2.58;;;;;;;19.23;50.31;101203.00;4983660;28;20493;-77
2022/08/21 00:38:36;;;;;;;16.52;2.88;;;;;;;19.22;50.27;101203.38;4985615;28;20015;-89
2022/08/21 00:41:04;;;;;;;11.40;4.38;;;;;;;19.19;50.03;101204.88;4979760;28;20073;-76
2022/08/21 00:43:33;;;;;;;7.00;2.53;;;;;;;19.20;50.00;101208.47;4980135;28;20121;-77
2022/08/21 00:46:00;;;;;;;8.45;2.72;;;;;;;19.22;49.82;101203.38;4984937;28;20166;-77
2022/08/21 00:48:26;;;;;;;18.17;3.97;;;;;;;19.18;49.65;101200.50;4984910;28;20026;-77
2022/08/21 00:51:07;;;;;;;11.23;2.90;;;;;;;19.07;49.99;101205.00;4980255;28;20147;-89
2022/08/21 00:53:36;;;;;;;11.45;2.70;;;;;;;19.03;49.98;101206.88;4978943;28;20057;-77
2022/08/21 00:56:04;;;;;;;10.55;3.33;;;;;;;19.00;50.11;101210.38;4982546;28;20101;-85
2022/08/21 00:58:32;;;;;;;11.10;3.42;;;;;;;19.00;49.80;101211.16;4984923;28;20030;-79
2022/08/21 01:01:01;;;;;;;11.27;2.80;;;;;;;18.96;49.93;101215.78;4982567;28;20041;-77
2022/08/21 01:03:26;;;;;;;15.48;3.92;;;;;;;19.01;49.64;101209.19;4983507;28;20018;-78
2022/08/21 01:05:53;;;;;;;12.90;3.45;;;;;;;18.95;49.76;101211.41;4982507;28;20030;-77
2022/08/21 01:08:20;;;;;;;10.35;2.58;;;;;;;18.97;49.46;101208.31;4983256;28;20038;-76
2022/08/21 01:10:47;;;;;;;12.85;3.50;;;;;;;18.93;49.64;101211.00;4983357;28;20027;-77
2022/08/21 01:13:16;;;;;;;8.55;2.70;;;;;;;18.87;49.42;101211.63;4982581;28;20477;-77
2022/08/21 01:15:44;;;;;;;11.73;3.80;;;;;;;18.82;49.53;101202.44;4980916;28;20033;-90
2022/08/21 01:18:12;;;;;;;10.40;3.00;;;;;;;18.82;49.47;101204.41;4983726;28;20046;-77
2022/08/21 01:20:41;;;;;;;9.18;2.80;;;;;;;18.81;49.41;101211.06;4981556;28;20037;-76
2022/08/21 01:23:07;;;;;;;6.80;2.27;;;;;;;18.78;49.31;101206.25;4982544;28;20112;-76
2022/08/21 01:25:34;;;;;;;9.30;2.85;;;;;;;18.75;49.24;101205.00;4982889;28;20066;-76
2022/08/21 01:28:08;;;;;;;12.68;3.05;;;;;;;18.70;49.24;101216.34;4980731;28;20034;-76
2022/08/21 01:30:36;;;;;;;13.35;3.72;;;;;;;18.73;49.08;101226.69;4981482;28;20080;-76
2022/08/21 01:33:03;;;;;;;9.13;2.70;;;;;;;18.70;48.97;101219.13;4980423;28;20141;-76
2022/08/21 01:35:28;;;;;;;7.70;2.28;;;;;;;18.69;48.92;101223.03;4980647;28;20093;-80
2022/08/21 01:37:54;;;;;;;11.10;2.33;;;;;;;18.70;49.07;101221.09;4982849;28;20035;-76
2022/08/21 01:40:21;;;;;;;12.02;2.88;;;;;;;18.66;48.92;101223.75;4980804;28;20039;-77
2022/08/21 01:42:48;;;;;;;10.60;2.58;;;;;;;18.57;49.00;101218.34;4982162;28;20393;-84
2022/08/21 01:45:15;;;;;;;12.35;2.80;;;;;;;18.53;49.05;101230.50;4997681;28;20117;-84
2022/08/21 01:47:41;;;;;;;7.90;2.53;;;;;;;18.47;49.04;101220.84;4981988;28;20109;-79
2022/08/21 01:50:11;;;;;;;13.82;3.70;;;;;;;18.43;48.95;101223.50;4986140;28;20030;-85
2022/08/21 01:52:37;;;;;;;10.90;2.83;;;;;;;18.42;49.01;101223.88;4983909;28;20026;-74
2022/08/21 01:55:06;;;;;;;9.30;2.65;;;;;;;18.43;48.88;101226.28;4981092;28;20128;-80
2022/08/21 01:57:32;;;;;;;11.95;2.95;;;;;;;18.41;49.08;101220.28;4988038;28;20040;-87
2022/08/21 01:59:58;;;;;;;12.32;2.78;;;;;;;18.37;49.02;101222.19;4977182;28;20022;-76
2022/08/21 02:02:24;;;;;;;10.25;3.30;;;;;;;18.37;48.83;101218.59;4981795;28;20496;-77
2022/08/21 02:04:49;;;;;;;12.02;2.83;;;;;;;18.30;49.08;101220.03;4983969;28;20051;-76
2022/08/21 02:07:15;;;;;;;10.52;3.45;;;;;;;18.29;49.06;101221.19;4985292;28;20029;-76
2022/08/21 02:09:44;;;;;;;10.05;2.97;;;;;;;18.31;48.90;101223.59;4984315;28;20030;-76
2022/08/21 02:12:11;;;;;;;8.60;2.65;;;;;;;18.21;49.17;101219.38;4985576;28;20026;-76
2022/08/21 02:14:37;;;;;;;8.00;2.55;;;;;;;18.13;48.98;101220.31;4979664;28;20363;-86
2022/08/21 02:17:03;;;;;;;18.60;2.88;;;;;;;18.10;49.11;101218.25;4982255;28;20038;-77
2022/08/21 02:19:29;;;;;;;12.82;2.53;;;;;;;18.09;49.08;101222.19;4984392;28;20496;-80
2022/08/21 02:21:55;;;;;;;7.03;2.63;;;;;;;17.99;49.06;101219.94;4983667;28;20088;-77
2022/08/21 02:24:20;;;;;;;5.63;2.38;;;;;;;17.95;49.03;101221.78;4985999;28;20048;-81
2022/08/21 02:26:46;;;;;;;9.70;2.55;;;;;;;17.94;49.11;101220.97;4987309;28;20054;-75
2022/08/21 02:29:12;;;;;;;12.40;3.13;;;;;;;17.90;49.08;101224.78;4980562;28;20034;-78
2022/08/21 02:31:37;;;;;;;10.45;3.35;;;;;;;17.88;49.06;101216.03;4981269;28;20533;-77
2022/08/21 02:34:03;;;;;;;11.55;2.47;;;;;;;17.82;49.16;101220.19;4982115;28;20037;-76
2022/08/21 02:36:28;;;;;;;10.48;3.05;;;;;;;17.78;49.17;101216.53;4983346;28;20058;-76
2022/08/21 02:38:54;;;;;;;6.95;2.35;;;;;;;17.77;49.04;101214.94;4981384;28;20142;-76
2022/08/21 02:41:21;;;;;;;9.00;2.85;;;;;;;17.72;49.26;101208.50;4985155;28;20050;-76
2022/08/21 02:43:47;;;;;;;8.05;3.25;;;;;;;17.74;49.10;101216.44;4987111;28;20030;-76
2022/08/21 02:46:15;;;;;;;7.00;2.53;;;;;;;17.75;48.94;101210.53;4982975;28;20030;-76
2022/08/21 02:48:41;;;;;;;12.57;3.50;;;;;;;17.75;49.02;101218.84;4986721;28;20018;-75
2022/08/21 02:51:19;;;;;;;8.90;2.70;;;;;;;17.64;49.23;101206.63;4982930;28;20045;-87
2022/08/21 02:53:46;;;;;;;9.60;2.45;;;;;;;17.66;48.88;101212.63;4991519;28;20058;-85
2022/08/21 02:56:19;;;;;;;10.20;3.58;;;;;;;17.59;49.12;101211.59;4987540;28;20106;-81
2022/08/21 02:58:48;;;;;;;9.43;2.95;;;;;;;17.60;49.32;101204.91;4987190;28;20015;-78
2022/08/21 03:01:15;;;;;;;11.30;3.95;;;;;;;17.66;49.32;101214.56;4987040;28;20101;-82
2022/08/21 03:03:43;;;;;;;9.52;2.40;;;;;;;17.60;49.16;101213.19;4979693;28;20110;-82
2022/08/21 03:06:11;;;;;;;12.60;3.17;;;;;;;17.55;49.20;101211.50;4989835;28;20035;-81
2022/08/21 03:08:38;;;;;;;12.48;3.78;;;;;;;17.55;49.30;101207.94;4984732;28;20377;-79
2022/08/21 03:11:04;;;;;;;12.20;3.42;;;;;;;17.55;49.28;101202.41;4984232;28;20114;-81
2022/08/21 03:13:31;;;;;;;12.80;3.08;;;;;;;17.55;49.31;101205.19;4984220;28;20055;-82
2022/08/21 03:15:57;;;;;;;12.00;4.15;;;;;;;17.52;49.46;101208.63;4987639;28;20638;-84
2022/08/21 03:18:23;;;;;;;8.57;2.63;;;;;;;17.51;49.33;101202.28;4984892;28;20055;-82
2022/08/21 03:20:49;;;;;;;11.65;2.55;;;;;;;17.49;49.33;101207.38;4984642;28;20041;-85
2022/08/21 03:23:17;;;;;;;12.90;2.53;;;;;;;17.46;49.33;101219.13;4984038;28;20022;-82
2022/08/21 03:25:43;;;;;;;13.23;2.88;;;;;;;17.42;49.48;101220.97;4985667;28;20026;-75
2022/08/21 03:28:12;;;;;;;11.50;4.18;;;;;;;17.40;49.50;101204.75;4984599;28;20090;-75
2022/08/21 03:30:38;;;;;;;12.52;2.70;;;;;;;17.36;49.49;101216.81;4984137;28;20473;-82
2022/08/21 03:33:03;;;;;;;10.40;2.58;;;;;;;17.32;49.84;101224.22;4985300;28;20050;-80
2022/08/21 03:35:30;;;;;;;12.88;3.53;;;;;;;17.28;49.95;101220.50;4981349;28;20482;-75
2022/08/21 03:37:56;;;;;;;11.20;2.88;;;;;;;17.24;49.88;101225.13;4976644;28;20102;-76
2022/08/21 03:40:24;;;;;;;11.73;2.85;;;;;;;17.27;49.86;101222.47;4976300;28;20122;-74
2022/08/21 03:42:50;;;;;;;19.02;5.13;;;;;;;17.33;49.33;101225.81;4976565;28;20055;-74
2022/08/21 03:45:17;;;;;;;7.05;2.80;;;;;;;17.36;49.27;101230.63;4976487;28;20049;-74
2022/08/21 03:48:00;;;;;;;9.07;2.30;;;;;;;17.30;49.47;101232.00;4976392;28;20061;-74
2022/08/21 03:50:28;;;;;;;8.93;2.53;;;;;;;17.29;49.53;101230.41;4976213;28;20030;-74
2022/08/21 03:52:54;;;;;;;10.23;3.10;;;;;;;17.25;49.39;101238.59;4974984;28;20061;-74
2022/08/21 03:55:20;;;;;;;9.38;2.58;;;;;;;17.24;49.23;101236.19;4976215;28;20085;-73
2022/08/21 03:57:45;;;;;;;9.55;2.78;;;;;;;17.22;49.40;101239.25;4976236;28;20030;-74
2022/08/21 04:00:13;;;;;;;9.75;3.20;;;;;;;17.23;49.44;101237.31;4975977;28;20031;-74
2022/08/21 04:02:40;;;;;;;10.93;2.60;;;;;;;17.22;49.27;101239.25;4976045;28;20540;-80
2022/08/21 04:05:06;;;;;;;11.43;2.45;;;;;;;17.17;49.29;101229.28;4976229;28;20102;-75
2022/08/21 04:07:32;;;;;;;10.73;2.55;;;;;;;17.16;49.28;101235.94;4975962;28;20528;-74
2022/08/21 04:09:57;;;;;;;15.52;3.75;;;;;;;17.10;49.51;101239.28;4975668;28;20039;-73
2022/08/21 04:12:23;;;;;;;14.50;3.33;;;;;;;17.07;49.52;101245.47;4975995;28;20030;-77
2022/08/21 04:14:51;;;;;;;12.55;4.32;;;;;;;17.06;49.37;101244.69;4975974;28;20019;-74
2022/08/21 04:17:17;;;;;;;11.75;2.30;;;;;;;17.01;49.50;101250.44;4975917;28;20109;-74
2022/08/21 04:19:43;;;;;;;13.98;2.95;;;;;;;16.96;49.26;101256.19;4975517;28;20666;-74
2022/08/21 04:22:09;;;;;;;7.32;2.30;;;;;;;16.94;49.41;101258.50;4975845;28;20050;-80
2022/08/21 04:24:34;;;;;;;11.77;3.10;;;;;;;16.90;49.55;101257.53;4975775;28;20031;-74
2022/08/21 04:27:00;;;;;;;10.13;2.85;;;;;;;16.87;49.71;101249.97;4974387;28;20038;-74
2022/08/21 04:29:26;;;;;;;12.02;3.28;;;;;;;16.83;49.69;101255.34;4973992;28;20035;-74
2022/08/21 04:31:52;;;;;;;12.50;3.15;;;;;;;16.82;50.00;101258.47;4975422;28;20166;-74
2022/08/21 04:34:18;;;;;;;10.00;2.60;;;;;;;16.76;50.17;101262.56;4974811;28;20030;-74
2022/08/21 04:36:43;;;;;;;13.27;2.55;;;;;;;16.72;50.26;101269.94;4972566;28;20030;-73
2022/08/21 04:39:09;;;;;;;13.10;3.05;;;;;;;16.81;49.96;101256.84;4974761;28;20031;-80
2022/08/21 04:41:36;;;;;;;11.88;3.13;;;;;;;16.82;49.91;101267.53;4975397;28;20031;-74
2022/08/21 04:44:03;;;;;;;11.00;3.47;;;;;;;16.74;50.29;101267.63;4975399;28;20386;-75
2022/08/21 04:46:29;;;;;;;13.05;2.95;;;;;;;16.71;50.03;101269.13;4975357;28;20478;-74
2022/08/21 04:48:55;;;;;;;15.80;3.85;;;;;;;16.69;50.18;101276.94;4975075;28;20490;-74
2022/08/21 04:51:39;;;;;;;8.75;2.75;;;;;;;16.67;50.01;101268.16;4975142;28;20030;-74
2022/08/21 04:54:18;;;;;;;11.80;3.28;;;;;;;16.69;50.12;101276.94;4975268;28;20568;-74
2022/08/21 04:56:53;;;;;;;10.75;2.75;;;;;;;16.72;49.98;101276.28;4973897;28;20035;-74
2022/08/21 04:59:26;;;;;;;10.85;2.90;;;;;;;16.76;49.83;101274.41;4974815;28;20045;-74
2022/08/21 05:01:56;;;;;;;8.02;2.70;;;;;;;16.71;50.15;101265.56;4975097;28;20030;-74
2022/08/21 05:04:24;;;;;;;16.38;3.25;;;;;;;16.65;50.14;101273.22;4974655;28;20556;-74
2022/08/21 05:06:54;;;;;;;10.02;2.42;;;;;;;16.74;50.06;101273.16;4975031;28;20062;-74
2022/08/21 05:09:21;;;;;;;9.88;3.75;;;;;;;16.71;50.22;101271.09;4974698;28;20074;-74
2022/08/21 05:11:48;;;;;;;9.10;2.53;;;;;;;16.72;50.25;101268.00;4974887;28;20026;-76
2022/08/21 05:14:15;;;;;;;10.55;3.30;;;;;;;16.65;50.36;101262.19;4974843;28;20500;-74
2022/08/21 05:16:43;;;;;;;11.98;2.92;;;;;;;16.64;50.48;101261.38;4974827;28;20474;-74
2022/08/21 05:19:09;;;;;;;15.57;4.35;;;;;;;16.61;50.41;101270.34;4974534;28;20466;-80
2022/08/21 05:21:39;;;;;;;11.23;3.33;;;;;;;16.65;50.37;101274.03;4974667;28;20441;-74
2022/08/21 05:24:04;;;;;;;12.02;3.60;;;;;;;16.70;50.32;101274.97;4989616;28;20035;-74
2022/08/21 05:26:30;;;;;;;12.43;3.28;;;;;;;16.75;50.23;101272.81;4974642;28;20562;-74
2022/08/21 05:28:56;;;;;;;12.48;3.30;;;;;;;16.75;50.11;101283.84;4974298;28;20077;-74
2022/08/21 05:31:22;;;;;;;11.73;3.20;;;;;;;16.77;50.25;101277.97;4974284;28;20422;-74
2022/08/21 05:33:48;;;;;;;8.68;4.22;;;;;;;16.79;50.27;101281.22;4974479;28;20030;-74
2022/08/21 05:36:13;;;;;;;12.57;3.05;;;;;;;16.82;50.77;101284.09;4974445;28;20026;-74
2022/08/21 05:38:40;;;;;;;15.57;3.45;;;;;;;16.91;50.18;101290.31;4974069;28;20589;-80
2022/08/21 05:41:07;;;;;;;12.60;3.15;;;;;;;17.00;50.34;101281.13;4974189;28;20470;-74
2022/08/21 05:43:35;;;;;;;11.07;3.03;;;;;;;17.01;50.33;101285.53;4974347;28;20085;-74
2022/08/21 05:46:04;;;;;;;14.45;2.95;;;;;;;17.08;50.35;101288.53;4974304;28;20030;-74
2022/08/21 05:48:30;;;;;;;11.02;3.35;;;;;;;17.11;50.42;101285.88;4973973;28;20026;-78
2022/08/21 05:50:56;;;;;;;15.57;3.58;;;;;;;17.16;50.50;101291.19;4973944;28;20082;-74
2022/08/21 05:53:23;;;;;;;9.55;2.78;;;;;;;17.22;50.50;101296.44;4973923;28;20019;-74
2022/08/21 05:55:50;;;;;;;9.85;2.90;;;;;;;17.30;50.51;101290.81;4972647;28;20034;-74
2022/08/21 05:58:19;;;;;;;10.18;3.17;;;;;;;17.44;50.51;101305.09;4956605;28;20034;-81
2022/08/21 06:00:47;;;;;;;12.25;2.85;;;;;;;17.57;50.45;101285.75;4988965;28;20030;-74
2022/08/21 06:03:20;;;;;;;14.23;3.78;;;;;;;17.67;50.44;101279.75;4974111;28;20031;-77
2022/08/21 06:05:46;;;;;;;13.43;3.00;;;;;;;17.72;50.41;101280.34;4972545;28;20556;-74
2022/08/21 06:08:11;;;;;;;7.35;2.63;;;;;;;17.81;50.29;101293.22;4973738;28;20102;-75
2022/08/21 06:10:37;;;;;;;9.68;2.95;;;;;;;17.91;50.52;101293.56;4973836;28;20027;-74
2022/08/21 06:13:04;;;;;;;11.80;2.83;;;;;;;18.02;50.48;101296.63;4973789;28;20058;-74
2022/08/21 06:15:30;;;;;;;9.43;2.97;;;;;;;18.13;50.19;101288.66;4973110;28;20023;-74
2022/08/21 06:17:55;;;;;;;17.10;5.55;;;;;;;18.20;50.02;101289.66;4973369;28;20030;-76
2022/08/21 06:20:22;;;;;;;20.92;3.80;;;;;;;18.30;49.97;101291.94;4973848;28;20022;-74
2022/08/21 06:22:47;;;;;;;19.35;4.22;;;;;;;18.35;50.12;101298.38;4973709;28;20033;-74
2022/08/21 06:25:13;;;;;;;9.98;2.40;;;;;;;18.37;49.80;101299.66;4973740;28;20023;-73
2022/08/21 06:27:39;;;;;;;9.13;2.90;;;;;;;18.41;50.07;101305.25;4973399;28;20498;-75
2022/08/21 06:30:06;;;;;;;10.50;2.80;;;;;;;18.46;50.03;101302.25;4973499;28;20082;-74
2022/08/21 06:32:31;;;;;;;11.90;3.03;;;;;;;18.49;50.12;101299.56;4972378;28;20030;-74
2022/08/21 06:34:57;;;;;;;11.30;3.47;;;;;;;18.50;50.29;101303.13;4973600;28;20030;-74
2022/08/21 06:37:22;;;;;;;9.55;3.47;;;;;;;18.49;50.36;101316.16;4973554;28;20027;-74
2022/08/21 06:39:48;;;;;;;13.38;2.95;;;;;;;18.39;50.87;101325.00;4972999;28;20066;-74
2022/08/21 06:42:17;;;;;;;9.75;3.05;;;;;;;18.39;50.54;101316.69;4973613;28;20054;-74
2022/08/21 06:44:44;;;;;;;9.82;2.40;;;;;;;18.41;50.57;101321.88;4973454;28;20023;-74
2022/08/21 06:47:09;;;;;;;12.02;3.33;;;;;;;18.46;50.54;101316.09;4973506;28;20035;-74
2022/08/21 06:49:36;;;;;;;8.13;2.53;;;;;;;18.35;51.08;101320.50;4972353;28;20042;-74
2022/08/21 06:52:02;;;;;;;12.20;3.20;;;;;;;18.30;51.28;101319.59;4973252;28;20058;-74
2022/08/21 06:54:30;;;;;;;8.63;3.35;;;;;;;18.53;50.79;101316.28;4973344;28;20035;-75
2022/08/21 06:56:56;;;;;;;18.67;3.45;;;;;;;18.49;50.88;101309.84;4973233;28;20094;-74
2022/08/21 06:59:21;;;;;;;12.02;3.08;;;;;;;18.62;50.54;101316.13;4973475;28;20035;-81
2022/08/21 07:01:47;;;;;;;11.30;3.65;;;;;;;18.71;50.51;101319.56;4972048;28;20062;-74
2022/08/21 07:04:13;;;;;;;9.95;3.00;;;;;;;18.90;50.20;101314.16;4973394;28;20031;-75
2022/08/21 07:06:38;;;;;;;8.88;2.75;;;;;;;18.87;50.63;101316.81;4973066;28;20549;-74
2022/08/21 07:09:04;;;;;;;9.02;2.92;;;;;;;18.96;50.25;101325.75;4973386;28;20038;-74
2022/08/21 07:11:29;;;;;;;13.25;2.70;;;;;;;18.94;50.40;101326.13;4973245;28;20541;-74
2022/08/21 07:13:56;;;;;;;10.77;2.75;;;;;;;19.02;50.19;101327.09;4973332;28;20118;-74
2022/08/21 07:16:22;;;;;;;11.65;2.65;;;;;;;18.84;50.76;101337.72;4972990;28;20054;-74
2022/08/21 07:18:48;;;;;;;12.65;3.65;;;;;;;18.71;51.14;101336.19;4973218;28;20114;-74
2022/08/21 07:21:15;;;;;;;10.40;2.80;;;;;;;19.01;50.25;101342.94;4973228;28;20529;-74
2022/08/21 07:23:48;;;;;;;8.55;2.63;;;;;;;19.17;50.19;101345.72;4973096;28;20019;-74
2022/08/21 07:26:15;;;;;;;13.70;3.28;;;;;;;18.95;50.71;101347.13;4973878;28;20406;-74
2022/08/21 07:28:41;;;;;;;7.53;2.35;;;;;;;19.09;50.41;101346.69;4991726;28;20019;-80
2022/08/21 07:31:09;;;;;;;11.88;2.88;;;;;;;19.14;50.49;101354.75;4976378;28;20122;-74
2022/08/21 07:33:35;;;;;;;16.60;4.60;;;;;;;19.25;50.36;101361.34;4976748;28;20535;-74
2022/08/21 07:36:02;;;;;;;13.88;3.45;;;;;;;19.34;50.34;101364.75;4975124;28;20038;-74
2022/08/21 07:38:28;;;;;;;10.40;3.00;;;;;;;19.45;50.07;101362.25;4976688;28;20181;-74
2022/08/21 07:40:58;;;;;;;14.15;3.20;;;;;;;19.49;49.93;101376.19;4978762;28;20544;-74
2022/08/21 07:43:24;;;;;;;9.52;2.97;;;;;;;19.57;50.02;101380.78;4983215;28;20085;-74
2022/08/21 07:45:49;;;;;;;7.00;2.50;;;;;;;19.46;50.65;101374.16;4983553;28;20030;-74
2022/08/21 07:48:18;;;;;;;12.23;2.72;;;;;;;19.51;50.47;101385.78;4985089;28;20026;-76
2022/08/21 07:50:43;;;;;;;9.23;2.42;;;;;;;19.69;50.26;101386.22;4983118;28;20194;-75
2022/08/21 07:53:09;;;;;;;16.45;3.33;;;;;;;19.82;50.40;101398.84;4979485;28;20117;-84
2022/08/21 07:55:35;;;;;;;9.77;3.05;;;;;;;19.97;49.75;101396.41;4985280;28;20019;-75
2022/08/21 07:58:00;;;;;;;10.70;3.08;;;;;;;20.05;49.28;101387.06;4983730;28;20026;-76
2022/08/21 08:00:28;;;;;;;18.65;3.53;;;;;;;20.05;49.18;101385.09;4985334;28;20023;-77
2022/08/21 08:02:55;;;;;;;14.05;3.83;;;;;;;20.21;48.85;101387.81;4984987;28;20026;-75
2022/08/21 08:05:23;;;;;;;22.02;3.55;;;;;;;20.26;48.83;101375.66;4983486;28;20038;-76
2022/08/21 08:07:49;;;;;;;12.27;3.20;;;;;;;20.32;48.84;101374.16;4985022;28;20030;-76
2022/08/21 08:10:16;;;;;;;16.67;3.92;;;;;;;20.40;48.98;101368.44;4984742;28;20520;-75
2022/08/21 08:12:43;;;;;;;9.63;3.17;;;;;;;20.57;48.64;101364.44;4986376;28;20486;-75
2022/08/21 08:15:13;;;;;;;20.23;3.45;;;;;;;20.70;48.48;101370.63;4983851;28;20027;-81
2022/08/21 08:17:39;;;;;;;16.73;3.80;;;;;;;20.77;48.57;101379.09;4983506;28;20030;-81
2022/08/21 08:20:07;;;;;;;10.65;2.65;;;;;;;20.96;48.40;101373.53;4980747;28;20038;-76
2022/08/21 08:22:34;;;;;;;9.85;2.58;;;;;;;21.10;48.07;101369.41;4983001;28;20034;-74
2022/08/21 08:25:00;;;;;;;9.73;2.78;;;;;;;21.05;48.61;101376.88;4990295;28;20030;-76
2022/08/21 08:27:25;;;;;;;18.83;3.25;;;;;;;21.21;48.36;101375.94;4980153;28;20026;-75
2022/08/21 08:29:51;;;;;;;9.90;1.98;;;;;;;21.33;48.10;101376.63;4982840;28;20030;-76
2022/08/21 08:32:17;;;;;;;6.72;2.08;;;;;;;21.34;47.99;101371.84;4984791;28;20026;-76
2022/08/21 08:34:43;;;;;;;8.80;2.13;;;;;;;21.53;47.52;101371.75;4983128;28;20023;-76
2022/08/21 08:37:09;;;;;;;15.65;2.33;;;;;;;21.60;47.71;101374.66;4999551;28;20085;-75
2022/08/21 08:39:35;;;;;;;7.07;2.00;;;;;;;21.59;46.82;101375.84;4983684;28;20030;-75
2022/08/21 08:42:09;;;;;;;6.05;2.13;;;;;;;21.73;46.07;101368.91;4981567;28;20029;-75
2022/08/21 08:44:36;;;;;;;12.43;2.38;;;;;;;21.90;45.65;101357.22;4982438;28;20030;-74
2022/08/21 08:47:04;;;;;;;4.47;1.55;;;;;;;22.04;45.54;101367.78;4984835;28;20484;-74
2022/08/21 08:49:48;;;;;;;11.75;1.55;;;;;;;22.08;44.75;101369.47;4983109;28;20034;-76
2022/08/21 08:52:22;;;;;;;11.75;3.00;;;;;;;22.06;44.63;101365.41;4984268;28;20077;-75
2022/08/21 08:54:55;;;;;;;12.75;2.72;;;;;;;22.22;44.52;101362.47;4979557;28;20019;-75
2022/08/21 08:57:23;;;;;;;10.13;2.33;;;;;;;22.37;44.43;101367.06;4985506;28;20153;-77
2022/08/21 08:59:53;;;;;;;6.88;2.13;;;;;;;22.11;44.01;101363.13;4980638;28;20448;-86
2022/08/21 09:02:20;;;;;;;9.43;2.72;;;;;;;22.47;43.34;101363.63;4983587;28;21559;-76
2022/08/21 09:04:48;;;;;;;5.82;1.77;;;;;;;22.40;42.86;101364.31;4978146;28;20019;-77
2022/08/21 09:07:44;;;;;;;8.27;2.35;;;;;;;22.55;42.46;101359.72;4984736;28;20054;-77
2022/08/21 09:10:17;;;;;;;9.07;1.85;;;;;;;22.66;42.67;101345.91;4979935;28;20035;-77
2022/08/21 09:13:03;;;;;;;7.00;1.63;;;;;;;22.85;42.36;101367.22;4997414;28;20470;-78
2022/08/21 09:15:36;;;;;;;6.80;1.83;;;;;;;22.96;41.99;101373.72;4980587;28;20379;-75
2022/08/21 09:18:01;;;;;;;5.80;1.20;;;;;;;23.03;41.52;101368.25;4982273;28;20023;-76
2022/08/21 09:20:27;;;;;;;8.07;1.70;;;;;;;23.03;41.12;101370.22;4985828;28;20029;-82
2022/08/21 09:23:04;;;;;;;8.70;1.33;;;;;;;23.18;40.76;101372.75;4982051;28;20041;-75
2022/08/21 09:25:42;;;;;;;6.40;2.20;;;;;;;23.14;40.48;101369.16;4982774;28;20521;-76
2022/08/21 09:28:13;;;;;;;6.10;1.20;;;;;;;23.21;40.42;101366.44;4981836;28;20076;-78
2022/08/21 09:30:41;;;;;;;6.45;1.52;;;;;;;23.43;40.40;101373.00;4981469;28;20484;-76
2022/08/21 09:33:07;;;;;;;4.28;1.60;;;;;;;23.51;39.90;101371.06;4978191;28;20050;-76
2022/08/21 09:35:34;;;;;;;57.50;6.25;;;;;;;23.70;39.83;101364.47;4958611;28;20114;-76
2022/08/21 09:38:05;;;;;;;10.32;1.73;;;;;;;23.72;39.29;101368.47;4958923;28;20042;-75
2022/08/21 09:40:43;;;;;;;10.40;2.33;;;;;;;23.71;38.54;101375.22;4957876;28;20449;-76
2022/08/21 09:43:09;;;;;;;5.28;1.67;;;;;;;23.78;38.46;101375.28;4956095;28;20453;-77
2022/08/21 09:45:35;;;;;;;5.20;1.00;;;;;;;23.95;37.90;101373.00;4958341;28;20031;-75
2022/08/21 09:48:11;;;;;;;7.25;1.20;;;;;;;23.84;37.24;101366.56;4957306;28;20038;-77
2022/08/21 09:50:38;;;;;;;7.72;1.38;;;;;;;23.95;38.23;101368.22;4956768;28;20062;-77
2022/08/21 09:53:04;;;;;;;6.78;1.48;;;;;;;24.01;37.96;101369.44;4957544;28;20088;-78
2022/08/21 09:59:00;;;;;;;7.05;2.08;;;;;;;24.49;36.63;101357.38;4950433;28;20121;-77
2022/08/21 10:01:26;;;;;;;8.52;1.83;;;;;;;24.54;37.03;101362.56;4957125;28;20102;-77
2022/08/21 10:04:08;;;;;;;8.15;1.90;;;;;;;24.55;36.31;101364.16;4956724;28;20023;-77
2022/08/21 10:06:34;;;;;;;10.52;1.48;;;;;;;24.70;36.78;101365.00;4957427;28;20552;-77
2022/08/21 10:09:06;;;;;;;7.45;1.65;;;;;;;24.64;35.01;101364.59;4957240;28;20027;-81
2022/08/21 10:11:34;;;;;;;9.25;1.58;;;;;;;24.67;35.65;101357.41;4957196;28;20118;-76
2022/08/21 10:14:16;;;;;;;2.88;0.90;;;;;;;24.79;34.94;101357.06;4957434;28;20581;-76
2022/08/21 10:17:07;;;;;;;9.88;2.45;;;;;;;24.89;34.28;101350.69;4957221;28;20031;-76
2022/08/21 10:20:08;;;;;;;8.15;1.20;;;;;;;25.08;34.56;101349.53;4958764;28;20042;-77
2022/08/21 10:22:39;;;;;;;7.65;1.42;;;;;;;25.14;34.40;101351.53;4944245;28;20038;-77
2022/08/21 10:25:22;;;;;;;14.15;2.03;;;;;;;25.32;34.38;101351.56;4963480;28;20034;-76
2022/08/21 10:28:05;;;;;;;6.45;1.33;;;;;;;25.41;33.61;101354.75;4962515;28;20042;-76
2022/08/21 10:30:36;;;;;;;5.25;1.00;;;;;;;25.45;34.19;101358.34;4956179;28;20070;-76
2022/08/21 10:33:32;;;;;;;8.73;1.58;;;;;;;25.55;33.45;101355.97;4956484;28;20046;-76
2022/08/21 10:36:04;;;;;;;4.35;1.15;;;;;;;25.65;33.19;101350.34;4957394;28;20034;-76
2022/08/21 10:38:42;;;;;;;4.65;1.17;;;;;;;25.89;33.16;101350.72;4956860;28;20489;-77
2022/08/21 10:41:42;;;;;;;5.72;1.30;;;;;;;25.84;30.80;101351.13;4957237;28;20129;-77
2022/08/21 10:44:38;;;;;;;5.72;1.25;;;;;;;25.95;31.92;101344.31;4957257;28;20030;-76
2022/08/21 10:47:27;;;;;;;2.47;1.15;;;;;;;26.07;31.63;101348.72;4915918;28;20050;-76
2022/08/21 10:50:12;;;;;;;6.57;1.00;;;;;;;26.03;31.39;101358.31;4971297;28;20022;-79
2022/08/21 10:52:59;;;;;;;4.88;1.33;;;;;;;26.20;30.97;101357.44;4956953;28;20526;-76
2022/08/21 10:55:39;;;;;;;7.97;1.33;;;;;;;26.32;30.93;101359.81;4967929;28;20109;-76
2022/08/21 10:58:14;;;;;;;5.10;1.27;;;;;;;26.18;30.83;101363.47;4972237;28;20031;-77
2022/08/21 11:00:46;;;;;;;7.43;1.67;;;;;;;26.21;30.57;101371.03;4973114;28;20029;-76
2022/08/21 11:03:12;;;;;;;452.05;57.20;;;;;;;26.30;30.82;101370.63;4977272;28;20035;-76
2022/08/21 11:06:04;;;;;;;15.45;2.55;;;;;;;26.38;30.23;101365.81;4977301;28;20030;-76
2022/08/21 11:08:37;;;;;;;2.70;0.88;;;;;;;26.52;30.07;101362.94;4975060;28;20041;-77
2022/08/21 11:11:05;;;;;;;3.83;1.00;;;;;;;26.48;30.31;101356.56;4976824;28;20022;-80
2022/08/21 11:13:41;;;;;;;6.68;1.50;;;;;;;26.53;30.07;101354.16;4977134;28;20026;-77
2022/08/21 11:16:13;;;;;;;7.40;1.27;;;;;;;26.38;30.17;101363.00;4976356;28;20034;-76
2022/08/21 11:18:46;;;;;;;5.80;1.30;;;;;;;26.26;30.42;101364.22;4957835;28;20033;-76
2022/08/21 11:21:44;;;;;;;5.10;1.17;;;;;;;26.28;30.41;101365.41;4960554;28;20027;-80
2022/08/21 11:24:31;;;;;;;3.60;0.98;;;;;;;26.16;30.24;101363.06;4993263;28;20482;-90
2022/08/21 11:27:05;;;;;;;11.70;1.63;;;;;;;26.28;30.34;101367.41;4979951;28;20022;-81
2022/08/21 11:29:35;;;;;;;13.77;1.67;;;;;;;26.45;30.44;101368.56;4982667;28;20027;-87
2022/08/21 11:32:23;;;;;;;3.78;1.10;;;;;;;26.55;30.46;101351.72;4982931;28;20034;-85
2022/08/21 11:35:13;;;;;;;2.95;0.77;;;;;;;26.60;29.96;101358.94;4982969;28;20039;-84